Time;durP1;ratioP1;P1;durP2;ratioP2;P2;SDS_P1;SDS_P2;PMS_P1;PMS_P2;Temp;Humidity;BMP_temperature;BMP_pressure;BME280_temperature;BME280_humidity;BME280_pressure;Samples;Min_cycle;Max_cycle;Signal;HPM_P1;HPM_P2
2023/05/26 00:08:28;;;;;;;5.72;2.35;;;;;;;;;;21003378;28;20040;-66
2023/05/26 00:18:29;;;;;;;7.15;3.15;;;;;;;;;;21002588;28;20414;-65
2023/05/26 00:28:30;;;;;;;6.57;2.70;;;;;;;;;;21000891;28;20052;-65
2023/05/26 00:38:31;;;;;;;6.15;2.50;;;;;;;;;;21001106;28;20477;-66
2023/05/26 00:48:33;;;;;;;3.92;2.13;;;;;;;;;;21000543;28;20044;-66
2023/05/26 00:58:34;;;;;;;4.65;2.28;;;;;;;;;;20999976;28;20045;-65
2023/05/26 01:08:35;;;;;;;8.13;2.65;;;;;;;;;;20998910;28;20036;-66
2023/05/26 01:18:46;;;;;;;3.13;1.88;;;;;;;;;;20998331;28;20055;-65
2023/05/26 01:28:49;;;;;;;3.72;1.40;;;;;;;;;;20996378;28;20052;-66
2023/05/26 01:38:50;;;;;;;4.70;1.55;;;;;;;;;;20996164;28;20040;-65
2023/05/26 01:48:54;;;;;;;3.67;1.80;;;;;;;;;;20996041;28;20059;-65
2023/05/26 01:58:56;;;;;;;2.92;1.48;;;;;;;;;;21000026;28;20098;-66
2023/05/26 02:08:57;;;;;;;6.65;1.92;;;;;;;;;;21013028;28;20067;-66
2023/05/26 02:18:59;;;;;;;3.65;1.50;;;;;;;;;;21012563;28;20087;-66
2023/05/26 02:29:01;;;;;;;5.07;1.70;;;;;;;;;;21010403;28;20057;-66
2023/05/26 02:39:03;;;;;;;5.30;1.83;;;;;;;;;;21010839;28;20523;-66
2023/05/26 02:49:04;;;;;;;6.32;2.35;;;;;;;;;;21009747;28;20064;-67
2023/05/26 02:59:05;;;;;;;8.68;2.53;;;;;;;;;;21009304;28;20563;-66
2023/05/26 03:09:06;;;;;;;4.75;2.10;;;;;;;;;;21007006;28;20047;-66
2023/05/26 03:19:07;;;;;;;6.13;2.20;;;;;;;;;;21007490;28;20063;-66
2023/05/26 03:29:08;;;;;;;6.53;2.05;;;;;;;;;;21005738;28;20056;-67
2023/05/26 03:39:09;;;;;;;5.25;2.08;;;;;;;;;;21004607;28;20080;-67
2023/05/26 03:49:10;;;;;;;5.95;1.80;;;;;;;;;;21003921;28;20044;-66
2023/05/26 03:59:12;;;;;;;7.45;2.13;;;;;;;;;;21003189;28;20052;-66
2023/05/26 04:09:13;;;;;;;5.95;1.77;;;;;;;;;;21004880;28;20123;-67
2023/05/26 04:19:15;;;;;;;4.63;1.63;;;;;;;;;;21002599;28;20490;-67
2023/05/26 04:29:16;;;;;;;3.63;1.58;;;;;;;;;;21000837;28;20052;-67
2023/05/26 04:39:17;;;;;;;2.88;1.60;;;;;;;;;;21001185;28;20044;-66
2023/05/26 04:49:22;;;;;;;3.42;1.77;;;;;;;;;;21000212;28;20044;-67
2023/05/26 04:59:23;;;;;;;2.72;1.60;;;;;;;;;;20999433;28;20051;-67
2023/05/26 05:09:24;;;;;;;5.57;2.05;;;;;;;;;;20997637;28;20045;-66
2023/05/26 05:19:26;;;;;;;3.17;1.80;;;;;;;;;;20997940;28;20052;-66
2023/05/26 05:29:27;;;;;;;3.40;1.95;;;;;;;;;;20994975;28;20056;-65
2023/05/26 05:39:28;;;;;;;5.50;2.00;;;;;;;;;;20995482;28;20055;-65
2023/05/26 05:49:31;;;;;;;15.18;7.25;;;;;;;;;;20996435;28;20072;-66
2023/05/26 05:59:32;;;;;;;3.90;2.47;;;;;;;;;;20996324;28;20076;-67
2023/05/26 06:09:36;;;;;;;3.90;1.92;;;;;;;;;;20995993;28;20482;-66
2023/05/26 06:19:37;;;;;;;5.63;2.25;;;;;;;;;;20995742;28;20374;-65
2023/05/26 06:29:38;;;;;;;5.05;2.30;;;;;;;;;;20993244;28;20539;-66
2023/05/26 06:39:39;;;;;;;6.03;2.53;;;;;;;;;;20993329;28;20048;-66
2023/05/26 06:49:40;;;;;;;4.72;2.38;;;;;;;;;;21005797;28;20063;-65
2023/05/26 06:59:42;;;;;;;6.78;2.28;;;;;;;;;;21007511;28;20109;-66
2023/05/26 07:09:43;;;;;;;4.38;2.20;;;;;;;;;;21008210;28;20044;-65
2023/05/26 07:19:44;;;;;;;6.82;2.72;;;;;;;;;;21007990;28;20049;-65
2023/05/26 07:29:45;;;;;;;3.88;2.20;;;;;;;;;;21005594;28;20063;-65
2023/05/26 07:39:46;;;;;;;5.93;2.03;;;;;;;;;;21005930;28;20102;-66
2023/05/26 07:49:47;;;;;;;2.38;1.50;;;;;;;;;;21003958;28;20050;-66
2023/05/26 07:59:48;;;;;;;4.78;1.75;;;;;;;;;;21003869;28;20040;-66
2023/05/26 08:09:52;;;;;;;2.42;1.92;;;;;;;;;;21002174;28;20075;-66
2023/05/26 08:19:53;;;;;;;3.97;1.42;;;;;;;;;;21002980;28;20095;-66
2023/05/26 08:29:54;;;;;;;4.40;1.83;;;;;;;;;;21000169;28;20137;-66
2023/05/26 08:39:57;;;;;;;3.00;1.17;;;;;;;;;;21000283;28;20396;-67
2023/05/26 08:50:02;;;;;;;2.38;1.42;;;;;;;;;;20999359;28;20040;-65
2023/05/26 09:00:04;;;;;;;3.85;1.42;;;;;;;;;;20997986;28;20044;-66
2023/05/26 09:10:29;;;;;;;4.15;1.25;;;;;;;;;;20995920;28;20040;-65
2023/05/26 09:20:30;;;;;;;3.05;1.30;;;;;;;;;;20996358;28;20052;-66
2023/05/26 09:30:36;;;;;;;3.70;0.98;;;;;;;;;;20995851;28;20055;-65
2023/05/26 09:40:41;;;;;;;3.42;1.88;;;;;;;;;;20994946;28;20040;-66
2023/05/26 09:50:42;;;;;;;3.97;2.15;;;;;;;;;;20994960;28;20044;-73
2023/05/26 10:00:44;;;;;;;6.18;1.83;;;;;;;;;;20995371;28;20341;-63
2023/05/26 10:10:46;;;;;;;2.20;1.63;;;;;;;;;;20994214;28;20500;-74
2023/05/26 10:20:49;;;;;;;6.03;1.70;;;;;;;;;;20999614;28;20052;-71
2023/05/26 10:31:00;;;;;;;2.85;1.63;;;;;;;;;;21008135;28;20091;-74
2023/05/26 10:41:01;;;;;;;2.80;1.80;;;;;;;;;;21008727;28;20507;-70
2023/05/26 10:51:02;;;;;;;4.55;1.85;;;;;;;;;;21006450;28;20041;-69
2023/05/26 11:01:09;;;;;;;4.85;2.10;;;;;;;;;;21007286;28;20465;-67
2023/05/26 11:11:10;;;;;;;4.68;1.80;;;;;;;;;;21007790;28;20425;-67
2023/05/26 11:21:12;;;;;;;9.23;2.60;;;;;;;;;;21006002;28;20497;-67
2023/05/26 11:31:18;;;;;;;2.47;1.25;;;;;;;;;;21002908;28;20048;-67
2023/05/26 11:41:19;;;;;;;5.32;1.60;;;;;;;;;;21003185;28;20055;-67
2023/05/26 11:51:21;;;;;;;5.82;2.25;;;;;;;;;;21002556;28;20481;-68
2023/05/26 12:01:22;;;;;;;2.42;1.48;;;;;;;;;;21001616;28;20537;-67
2023/05/26 12:11:29;;;;;;;9.35;2.90;;;;;;;;;;21001285;28;20048;-67
2023/05/26 12:21:31;;;;;;;3.57;2.10;;;;;;;;;;21000668;28;20090;-67
2023/05/26 12:31:38;;;;;;;3.42;1.42;;;;;;;;;;20998992;28;20057;-67
2023/05/26 12:41:42;;;;;;;3.40;1.88;;;;;;;;;;20998547;28;20446;-67
2023/05/26 12:51:43;;;;;;;3.38;1.52;;;;;;;;;;20997655;28;20072;-68
2023/05/26 13:01:45;;;;;;;5.03;1.58;;;;;;;;;;20996095;28;20512;-67
2023/05/26 13:11:46;;;;;;;4.35;1.90;;;;;;;;;;20995619;28;20071;-67
2023/05/26 13:21:47;;;;;;;4.07;1.85;;;;;;;;;;20990553;28;20555;-63
2023/05/26 13:31:48;;;;;;;3.45;1.65;;;;;;;;;;20967376;28;20088;-70
2023/05/26 13:41:49;;;;;;;6.22;2.15;;;;;;;;;;20986768;28;20045;-62
2023/05/26 13:51:51;;;;;;;12.25;2.75;;;;;;;;;;20983275;28;20057;-65
2023/05/26 14:01:52;;;;;;;7.50;3.08;;;;;;;;;;21014030;28;20409;-63
2023/05/26 14:11:54;;;;;;;4.78;2.58;;;;;;;;;;21012469;28;20075;-63
2023/05/26 14:21:55;;;;;;;6.47;2.78;;;;;;;;;;21010823;28;20055;-65
2023/05/26 14:31:56;;;;;;;5.40;3.28;;;;;;;;;;21015465;28;20055;-65
2023/05/26 14:41:57;;;;;;;4.72;2.70;;;;;;;;;;21017616;28;20068;-65
2023/05/26 14:51:58;;;;;;;3.45;1.90;;;;;;;;;;21010984;28;20059;-65
2023/05/26 15:01:59;;;;;;;5.50;2.50;;;;;;;;;;21017936;28;20110;-64
2023/05/26 15:12:00;;;;;;;5.32;2.20;;;;;;;;;;21006175;28;20083;-65
2023/05/26 15:22:03;;;;;;;13.15;4.20;;;;;;;;;;21005622;28;20052;-65
2023/05/26 15:32:05;;;;;;;9.73;3.15;;;;;;;;;;21003730;28;20053;-66
2023/05/26 15:42:07;;;;;;;9.13;3.20;;;;;;;;;;21002944;28;20048;-64
2023/05/26 15:52:08;;;;;;;8.07;3.88;;;;;;;;;;21003067;28;20099;-69
2023/05/26 16:02:10;;;;;;;6.50;3.97;;;;;;;;;;21002315;28;20051;-68
2023/05/26 16:12:11;;;;;;;8.38;4.70;;;;;;;;;;21001707;28;20040;-67
2023/05/26 16:22:13;;;;;;;8.00;4.85;;;;;;;;;;21000706;28;20072;-68
2023/05/26 16:32:14;;;;;;;8.65;4.00;;;;;;;;;;20999927;28;20084;-71
2023/05/26 16:42:15;;;;;;;5.43;3.28;;;;;;;;;;20998444;28;20056;-71
2023/05/26 16:52:16;;;;;;;4.95;3.60;;;;;;;;;;20997949;28;20066;-72
2023/05/26 17:02:17;;;;;;;5.80;3.85;;;;;;;;;;20998488;28;20481;-70
2023/05/26 17:12:19;;;;;;;7.57;3.80;;;;;;;;;;20997862;28;20484;-65
2023/05/26 17:22:20;;;;;;;8.43;4.63;;;;;;;;;;20994864;28;20118;-70
2023/05/26 17:32:21;;;;;;;6.68;3.65;;;;;;;;;;20985974;28;20053;-68
2023/05/26 17:42:22;;;;;;;7.82;4.13;;;;;;;;;;20993600;28;20528;-71
2023/05/26 17:52:23;;;;;;;6.18;3.97;;;;;;;;;;20995777;28;20406;-70
2023/05/26 18:02:26;;;;;;;8.05;4.80;;;;;;;;;;20994739;28;20078;-68
2023/05/26 18:12:28;;;;;;;8.50;4.40;;;;;;;;;;20995493;28;20126;-66
2023/05/26 18:22:29;;;;;;;8.93;4.72;;;;;;;;;;20994580;28;20134;-68
2023/05/26 18:32:30;;;;;;;6.78;4.15;;;;;;;;;;20991445;28;20417;-72
2023/05/26 18:42:33;;;;;;;9.85;3.97;;;;;;;;;;20999522;28;20075;-66
2023/05/26 18:52:35;;;;;;;6.95;3.80;;;;;;;;;;21007806;28;20135;-65
2023/05/26 19:02:36;;;;;;;8.07;4.80;;;;;;;;;;21007902;28;20044;-66
2023/05/26 19:12:37;;;;;;;7.28;3.92;;;;;;;;;;21006347;28;20040;-65
2023/05/26 19:22:38;;;;;;;6.97;4.18;;;;;;;;;;21005745;28;20119;-65
2023/05/26 19:32:41;;;;;;;7.68;4.13;;;;;;;;;;21003553;28;20087;-65
2023/05/26 19:42:42;;;;;;;5.97;3.97;;;;;;;;;;21004369;28;20512;-65
2023/05/26 19:52:44;;;;;;;7.40;4.30;;;;;;;;;;21000516;28;20052;-65
2023/05/26 20:02:45;;;;;;;6.72;4.35;;;;;;;;;;21001436;28;20055;-64
2023/05/26 20:12:46;;;;;;;7.20;4.35;;;;;;;;;;21001822;28;20051;-64
2023/05/26 20:22:47;;;;;;;8.20;4.22;;;;;;;;;;21000333;28;20048;-65
2023/05/26 20:32:48;;;;;;;6.70;4.25;;;;;;;;;;20999417;28;20114;-64
2023/05/26 20:42:50;;;;;;;8.95;4.60;;;;;;;;;;20998569;28;20044;-65
2023/05/26 20:52:51;;;;;;;9.57;3.47;;;;;;;;;;20998147;28;20073;-65
2023/05/26 21:02:52;;;;;;;9.00;4.47;;;;;;;;;;20995978;28;20056;-65
2023/05/26 21:12:53;;;;;;;9.70;4.40;;;;;;;;;;20997849;28;20098;-64
2023/05/26 21:22:54;;;;;;;10.82;4.43;;;;;;;;;;20997323;28;20489;-65
2023/05/26 21:33:00;;;;;;;8.68;4.70;;;;;;;;;;20995190;28;20053;-65
2023/05/26 21:43:01;;;;;;;8.70;3.90;;;;;;;;;;20996064;28;20045;-65
2023/05/26 21:53:03;;;;;;;8.65;3.47;;;;;;;;;;20995762;28;20189;-66
2023/05/26 22:03:04;;;;;;;7.50;3.70;;;;;;;;;;20995238;28;20521;-65
2023/05/26 22:13:06;;;;;;;9.30;4.18;;;;;;;;;;20994533;28;20114;-65
2023/05/26 22:23:07;;;;;;;9.05;4.60;;;;;;;;;;21011183;28;20550;-65
2023/05/26 22:33:08;;;;;;;7.25;4.13;;;;;;;;;;21009132;28;20047;-65
2023/05/26 22:43:09;;;;;;;6.35;4.32;;;;;;;;;;21009614;28;20512;-65
2023/05/26 22:53:10;;;;;;;8.90;3.65;;;;;;;;;;21009590;28;20040;-65
2023/05/26 23:03:12;;;;;;;7.40;4.45;;;;;;;;;;21006668;28;20040;-65
2023/05/26 23:13:13;;;;;;;8.85;4.35;;;;;;;;;;21006548;28;20039;-65
2023/05/26 23:23:14;;;;;;;7.85;3.65;;;;;;;;;;21007657;28;20056;-65
2023/05/26 23:33:15;;;;;;;8.82;3.92;;;;;;;;;;21004740;28;20041;-64
2023/05/26 23:43:16;;;;;;;8.88;4.13;;;;;;;;;;21006626;28;20433;-65
2023/05/26 23:53:17;;;;;;;8.57;4.72;;;;;;;;;;21004128;28;20150;-64
